createdAt,value
2018-05-25T00:00:25.796Z,0.00
2018-05-25T00:01:25.821Z,0.00
2018-05-25T00:02:25.842Z,0.00
2018-05-25T00:03:25.863Z,0.00
2018-05-25T00:04:25.885Z,0.00
2018-05-25T00:05:25.910Z,0.00
2018-05-25T00:06:25.927Z,0.00
2018-05-25T00:07:25.957Z,0.00
2018-05-25T00:08:25.984Z,0.00
2018-05-25T00:09:26.009Z,0.00
2018-05-25T00:10:26.015Z,0.00
2018-05-25T00:11:26.042Z,0.00
2018-05-25T00:12:26.071Z,0.00
2018-05-25T00:13:26.088Z,0.00
2018-05-25T00:14:26.115Z,0.00
2018-05-25T00:15:26.139Z,0.00
2018-05-25T00:16:26.161Z,0.00
2018-05-25T00:17:26.174Z,0.00
2018-05-25T00:18:26.205Z,0.00
2018-05-25T00:19:26.230Z,0.00
2018-05-25T00:20:26.240Z,0.00
2018-05-25T00:21:26.268Z,0.00
2018-05-25T00:22:26.289Z,0.00
2018-05-25T00:23:26.319Z,0.00
2018-05-25T00:24:26.333Z,0.00
2018-05-25T00:25:26.359Z,0.00
2018-05-25T00:26:26.382Z,0.00
2018-05-25T00:27:26.396Z,0.00
2018-05-25T00:28:26.438Z,0.00
2018-05-25T00:29:26.453Z,0.00
2018-05-25T00:30:26.477Z,0.00
2018-05-25T00:31:26.490Z,0.00
2018-05-25T00:32:26.511Z,0.00
2018-05-25T00:33:26.537Z,0.00
2018-05-25T00:34:26.563Z,0.00
2018-05-25T00:35:26.577Z,0.00
2018-05-25T00:36:26.606Z,0.00
2018-05-25T00:37:26.633Z,0.00
2018-05-25T00:38:26.649Z,0.00
2018-05-25T00:39:26.674Z,0.00
2018-05-25T00:40:26.695Z,0.00
2018-05-25T00:41:26.721Z,0.00
2018-05-25T00:42:26.737Z,0.00
2018-05-25T00:43:26.763Z,0.00
2018-05-25T00:44:26.785Z,0.00
2018-05-25T00:45:26.798Z,0.00
2018-05-25T00:46:26.826Z,0.00
2018-05-25T00:47:26.853Z,0.00
2018-05-25T00:48:26.882Z,0.00
2018-05-25T00:49:26.899Z,0.00
2018-05-25T00:50:26.967Z,0.00
2018-05-25T00:51:26.944Z,0.00
2018-05-25T00:52:26.964Z,0.00
2018-05-25T00:53:26.987Z,0.00
2018-05-25T00:54:27.011Z,0.00
2018-05-25T00:55:27.037Z,0.00
2018-05-25T00:56:27.047Z,0.00
2018-05-25T00:57:27.073Z,0.00
2018-05-25T00:58:27.105Z,0.00
2018-05-25T00:59:27.119Z,0.00
2018-05-25T01:00:27.139Z,0.00
2018-05-25T01:01:27.165Z,0.00
2018-05-25T01:02:27.191Z,0.00
2018-05-25T01:03:27.203Z,0.00
2018-05-25T01:04:27.236Z,0.00
2018-05-25T01:05:27.260Z,0.00
2018-05-25T01:06:27.268Z,0.00
2018-05-25T01:07:27.294Z,0.00
2018-05-25T01:08:27.325Z,0.00
2018-05-25T01:09:27.338Z,0.00
2018-05-25T01:10:27.366Z,0.00
2018-05-25T01:11:27.393Z,0.00
2018-05-25T01:12:27.415Z,0.00
2018-05-25T01:13:27.428Z,0.00
2018-05-25T01:14:27.456Z,0.00
2018-05-25T01:15:27.481Z,0.00
2018-05-25T01:16:27.490Z,0.00
2018-05-25T01:17:27.521Z,0.00
2018-05-25T01:18:27.545Z,0.00
2018-05-25T01:19:27.558Z,0.00
2018-05-25T01:20:27.593Z,0.00
2018-05-25T01:21:27.622Z,0.00
2018-05-25T01:22:27.635Z,0.00
2018-05-25T01:23:27.651Z,0.00
2018-05-25T01:24:27.680Z,0.00
2018-05-25T01:25:27.706Z,0.00
2018-05-25T01:26:27.729Z,0.00
2018-05-25T01:27:27.742Z,0.00
2018-05-25T01:28:27.765Z,0.00
2018-05-25T01:29:27.780Z,0.00
2018-05-25T01:30:27.814Z,0.00
2018-05-25T01:31:27.837Z,0.00
2018-05-25T01:32:27.859Z,0.00
2018-05-25T01:33:27.872Z,0.00
2018-05-25T01:34:27.894Z,0.00
2018-05-25T01:35:27.921Z,0.00
2018-05-25T01:36:27.938Z,0.00
2018-05-25T01:37:27.966Z,0.00
2018-05-25T01:38:27.989Z,0.00
2018-05-25T01:39:28.015Z,0.00
2018-05-25T01:40:28.032Z,0.00
2018-05-25T01:41:28.057Z,0.00
2018-05-25T01:42:28.083Z,0.00
2018-05-25T01:43:28.095Z,0.00
2018-05-25T01:44:28.119Z,0.00
2018-05-25T01:45:28.143Z,0.00
2018-05-25T01:46:28.175Z,0.00
2018-05-25T01:47:28.188Z,0.00
2018-05-25T01:48:28.211Z,0.00
2018-05-25T01:49:28.224Z,0.00
2018-05-25T01:50:28.249Z,0.00
2018-05-25T01:51:28.274Z,0.00
2018-05-25T01:52:28.291Z,0.00
2018-05-25T01:53:28.321Z,0.00
2018-05-25T01:54:28.340Z,0.00
2018-05-25T01:55:28.353Z,0.00
2018-05-25T01:56:28.384Z,0.00
2018-05-25T01:57:28.412Z,0.00
2018-05-25T01:58:28.436Z,0.00
2018-05-25T01:59:28.450Z,0.00
2018-05-25T02:00:28.485Z,0.00
2018-05-25T02:01:28.498Z,0.00
2018-05-25T02:02:28.514Z,0.00
2018-05-25T02:03:28.540Z,0.00
2018-05-25T02:04:28.562Z,0.00
2018-05-25T02:05:28.574Z,0.00
2018-05-25T02:06:28.602Z,0.00
2018-05-25T02:07:28.631Z,0.00
2018-05-25T02:08:28.661Z,0.00
2018-05-25T02:09:28.673Z,0.00
2018-05-25T02:10:28.694Z,0.00
2018-05-25T02:11:28.709Z,0.00
2018-05-25T02:12:28.738Z,0.00
2018-05-25T02:13:28.764Z,0.00
2018-05-25T02:14:28.779Z,0.00
2018-05-25T02:15:28.801Z,0.00
2018-05-25T02:16:28.823Z,0.00
2018-05-25T02:17:28.837Z,0.00
2018-05-25T02:18:28.868Z,0.00
2018-05-25T02:19:28.893Z,0.00
2018-05-25T02:20:28.918Z,0.00
2018-05-25T02:21:28.930Z,0.00
2018-05-25T02:22:28.954Z,0.00
2018-05-25T02:23:28.979Z,0.00
2018-05-25T02:24:28.996Z,0.00
2018-05-25T02:25:29.022Z,0.00
2018-05-25T02:26:29.043Z,0.00
2018-05-25T02:27:29.058Z,0.00
2018-05-25T02:28:29.089Z,0.00
2018-05-25T02:29:29.114Z,0.00
2018-05-25T02:30:29.142Z,0.00
2018-05-25T02:31:29.155Z,0.00
2018-05-25T02:32:29.177Z,0.00
2018-05-25T02:33:29.191Z,0.00
2018-05-25T02:34:29.220Z,0.00
2018-05-25T02:35:29.245Z,0.00
2018-05-25T02:36:29.253Z,0.00
2018-05-25T02:37:29.280Z,0.00
2018-05-25T02:38:29.308Z,0.00
2018-05-25T02:39:29.322Z,0.00
2018-05-25T02:40:29.353Z,0.00
2018-05-25T02:41:29.378Z,0.00
2018-05-25T02:42:29.384Z,0.00
2018-05-25T02:43:29.410Z,0.00
2018-05-25T02:44:29.441Z,0.00
2018-05-25T02:45:29.460Z,0.00
2018-05-25T02:46:29.484Z,5.63
2018-05-25T02:47:29.500Z,5.63
2018-05-25T02:48:29.520Z,5.63
2018-05-25T02:49:29.543Z,5.63
2018-05-25T02:50:29.571Z,5.63
2018-05-25T02:51:29.587Z,5.63
2018-05-25T02:52:29.608Z,5.63
2018-05-25T02:53:29.933Z,5.63
2018-05-25T02:54:29.648Z,11.25
2018-05-25T02:55:29.675Z,11.25
2018-05-25T02:56:29.692Z,11.25
2018-05-25T02:57:29.719Z,11.25
2018-05-25T02:58:29.744Z,11.25
2018-05-25T02:59:29.753Z,11.25
2018-05-25T03:00:29.783Z,16.88
2018-05-25T03:01:29.818Z,16.88
2018-05-25T03:02:29.821Z,16.88
2018-05-25T03:03:29.847Z,16.88
2018-05-25T03:04:29.869Z,16.88
2018-05-25T03:05:29.882Z,22.50
2018-05-25T03:06:29.917Z,22.50
2018-05-25T03:07:29.953Z,22.50
2018-05-25T03:08:29.950Z,22.50
2018-05-25T03:09:29.975Z,28.13
2018-05-25T03:10:29.998Z,28.13
2018-05-25T03:11:30.016Z,28.13
2018-05-25T03:12:30.046Z,28.13
2018-05-25T03:13:30.068Z,33.75
2018-05-25T03:14:30.078Z,33.75
2018-05-25T03:15:30.163Z,33.75
2018-05-25T03:16:30.134Z,33.75
2018-05-25T03:17:30.148Z,39.38
2018-05-25T03:18:30.175Z,39.38
2018-05-25T03:19:30.201Z,39.38
2018-05-25T03:20:30.210Z,45.00
2018-05-25T03:21:30.236Z,45.00
2018-05-25T03:22:30.264Z,45.00
2018-05-25T03:23:30.276Z,50.63
2018-05-25T03:24:30.298Z,50.63
2018-05-25T03:25:30.315Z,50.63
2018-05-25T03:26:30.349Z,56.25
2018-05-25T03:27:30.368Z,56.25
2018-05-25T03:28:30.385Z,56.25
2018-05-25T03:29:30.409Z,61.88
2018-05-25T03:30:30.431Z,61.88
2018-05-25T03:31:30.446Z,61.88
2018-05-25T03:32:30.483Z,67.50
2018-05-25T03:33:30.504Z,67.50
2018-05-25T03:34:30.525Z,67.50
2018-05-25T03:35:30.542Z,73.13
2018-05-25T03:36:30.567Z,73.13
2018-05-25T03:37:30.574Z,73.13
2018-05-25T03:38:30.605Z,78.75
2018-05-25T03:39:30.632Z,78.75
2018-05-25T03:40:30.642Z,78.75
2018-05-25T03:41:30.683Z,84.38
2018-05-25T03:42:30.690Z,84.38
2018-05-25T03:43:30.705Z,84.38
2018-05-25T03:44:30.735Z,90.00
2018-05-25T03:45:30.761Z,90.00
2018-05-25T03:46:30.772Z,90.00
2018-05-25T03:47:30.799Z,95.63
2018-05-25T03:48:30.827Z,95.63
2018-05-25T03:49:30.844Z,95.63
2018-05-25T03:50:30.865Z,101.25
2018-05-25T03:51:30.878Z,101.25
2018-05-25T03:52:30.901Z,101.25
2018-05-25T03:53:30.926Z,106.88
2018-05-25T03:54:30.946Z,106.88
2018-05-25T03:55:30.973Z,106.88
2018-05-25T03:56:30.998Z,112.50
2018-05-25T03:57:31.007Z,112.50
2018-05-25T03:58:31.031Z,112.50
2018-05-25T03:59:31.057Z,118.13
2018-05-25T04:00:31.075Z,118.13
2018-05-25T04:01:31.104Z,123.75
2018-05-25T04:02:31.122Z,123.75
2018-05-25T04:03:31.136Z,123.75
2018-05-25T04:04:31.171Z,129.38
2018-05-25T04:05:31.193Z,129.38
2018-05-25T04:06:31.208Z,129.38
2018-05-25T04:07:31.234Z,135.00
2018-05-25T04:08:31.256Z,135.00
2018-05-25T04:09:31.269Z,135.00
2018-05-25T04:10:31.297Z,140.63
2018-05-25T04:11:31.322Z,140.63
2018-05-25T04:12:31.333Z,140.63
2018-05-25T04:13:31.359Z,146.25
2018-05-25T04:14:31.387Z,146.25
2018-05-25T04:15:31.399Z,146.25
2018-05-25T04:16:31.430Z,151.88
2018-05-25T04:17:31.455Z,151.88
2018-05-25T04:18:31.465Z,151.88
2018-05-25T04:19:31.492Z,151.88
2018-05-25T04:20:31.522Z,157.50
2018-05-25T04:21:31.542Z,157.50
2018-05-25T04:22:31.566Z,157.50
2018-05-25T04:23:31.572Z,163.13
2018-05-25T04:24:31.595Z,163.13
2018-05-25T04:25:31.621Z,163.13
2018-05-25T04:26:31.640Z,163.13
2018-05-25T04:27:31.665Z,168.75
2018-05-25T04:28:31.690Z,168.75
2018-05-25T04:29:31.702Z,168.75
2018-05-25T04:30:31.726Z,168.75
2018-05-25T04:31:31.751Z,174.38
2018-05-25T04:32:31.782Z,174.38
2018-05-25T04:33:31.793Z,174.38
2018-05-25T04:34:31.816Z,180.00
2018-05-25T04:35:31.832Z,180.00
2018-05-25T04:36:31.860Z,180.00
2018-05-25T04:37:31.888Z,185.63
2018-05-25T04:38:31.901Z,185.63
2018-05-25T04:39:31.940Z,185.63
2018-05-25T04:40:31.948Z,185.63
2018-05-25T04:41:31.963Z,191.25
2018-05-25T04:42:31.990Z,191.25
2018-05-25T04:43:32.016Z,191.25
2018-05-25T04:44:32.025Z,196.88
2018-05-25T04:45:32.064Z,196.88
2018-05-25T04:46:32.079Z,196.88
2018-05-25T04:47:32.093Z,196.88
2018-05-25T04:48:32.135Z,202.50
2018-05-25T04:49:32.149Z,202.50
2018-05-25T04:50:32.162Z,202.50
2018-05-25T04:51:32.188Z,202.50
2018-05-25T04:52:32.223Z,208.13
2018-05-25T04:53:32.224Z,208.13
2018-05-25T04:54:32.248Z,208.13
2018-05-25T04:55:32.274Z,208.13
2018-05-25T04:56:32.291Z,213.75
2018-05-25T04:57:32.317Z,213.75
2018-05-25T04:58:32.340Z,213.75
2018-05-25T04:59:32.355Z,213.75
2018-05-25T05:00:32.384Z,213.75
2018-05-25T05:01:32.414Z,213.75
2018-05-25T05:02:32.421Z,219.38
2018-05-25T05:03:32.447Z,219.38
2018-05-25T05:04:32.470Z,219.38
2018-05-25T05:05:32.483Z,225.00
2018-05-25T05:06:32.513Z,225.00
2018-05-25T05:07:32.544Z,230.63
2018-05-25T05:08:32.549Z,236.25
2018-05-25T05:09:32.574Z,236.25
2018-05-25T05:10:32.604Z,241.88
2018-05-25T05:11:32.616Z,264.38
2018-05-25T05:12:32.646Z,258.75
2018-05-25T05:13:32.671Z,247.50
2018-05-25T05:14:32.692Z,241.88
2018-05-25T05:15:32.705Z,247.50
2018-05-25T05:16:32.747Z,247.50
2018-05-25T05:17:32.766Z,270.00
2018-05-25T05:18:32.776Z,315.00
2018-05-25T05:19:32.802Z,320.63
2018-05-25T05:20:32.825Z,298.13
2018-05-25T05:21:32.838Z,320.63
2018-05-25T05:22:32.872Z,506.25
2018-05-25T05:23:32.909Z,866.25
2018-05-25T05:24:32.904Z,866.25
2018-05-25T05:25:32.930Z,725.63
2018-05-25T05:26:32.955Z,511.88
2018-05-25T05:27:32.969Z,399.38
2018-05-25T05:28:32.996Z,303.75
2018-05-25T05:29:33.037Z,270.00
2018-05-25T05:30:33.046Z,270.00
2018-05-25T05:31:33.061Z,270.00
2018-05-25T05:32:33.091Z,270.00
2018-05-25T05:33:33.124Z,270.00
2018-05-25T05:34:33.140Z,286.88
2018-05-25T05:35:33.154Z,376.88
2018-05-25T05:36:33.188Z,478.13
2018-05-25T05:37:33.210Z,523.13
2018-05-25T05:38:33.230Z,382.50
2018-05-25T05:39:33.259Z,427.50
2018-05-25T05:40:33.270Z,416.25
2018-05-25T05:41:33.293Z,478.13
2018-05-25T05:42:33.321Z,450.00
2018-05-25T05:43:33.347Z,343.13
2018-05-25T05:44:33.365Z,337.50
2018-05-25T05:45:33.391Z,320.63
2018-05-25T05:46:33.413Z,315.00
2018-05-25T05:47:33.441Z,315.00
2018-05-25T05:48:33.456Z,315.00
2018-05-25T05:49:33.479Z,343.13
2018-05-25T05:50:33.511Z,382.50
2018-05-25T05:51:33.534Z,376.88
2018-05-25T05:52:33.548Z,326.25
2018-05-25T05:53:33.568Z,337.50
2018-05-25T05:54:33.603Z,354.38
2018-05-25T05:55:33.622Z,348.75
2018-05-25T05:56:33.643Z,331.88
2018-05-25T05:57:33.658Z,337.50
2018-05-25T05:58:33.686Z,393.75
2018-05-25T05:59:33.712Z,742.50
2018-05-25T06:00:33.742Z,641.25
2018-05-25T06:01:33.756Z,416.25
2018-05-25T06:02:33.774Z,455.63
2018-05-25T06:03:33.803Z,601.88
2018-05-25T06:04:33.830Z,601.88
2018-05-25T06:05:33.869Z,433.13
2018-05-25T06:06:33.874Z,438.75
2018-05-25T06:07:33.899Z,472.50
2018-05-25T06:08:33.920Z,635.63
2018-05-25T06:09:33.947Z,928.13
2018-05-25T06:10:33.977Z,804.38
2018-05-25T06:11:34.002Z,675.00
2018-05-25T06:12:34.012Z,703.13
2018-05-25T06:13:34.036Z,596.25
2018-05-25T06:14:34.061Z,714.38
2018-05-25T06:15:34.087Z,596.25
2018-05-25T06:16:34.104Z,849.38
2018-05-25T06:17:34.131Z,821.25
2018-05-25T06:18:34.154Z,579.38
2018-05-25T06:19:34.183Z,585.00
2018-05-25T06:20:34.217Z,860.63
2018-05-25T06:21:34.236Z,978.75
2018-05-25T06:22:34.260Z,708.75
2018-05-25T06:23:34.272Z,618.75
2018-05-25T06:24:34.296Z,663.75
2018-05-25T06:25:34.321Z,776.25
2018-05-25T06:26:34.351Z,1192.50
2018-05-25T06:27:34.379Z,1389.38
2018-05-25T06:28:34.400Z,883.13
2018-05-25T06:29:34.426Z,562.50
2018-05-25T06:30:34.452Z,652.50
2018-05-25T06:31:34.479Z,1203.75
2018-05-25T06:32:34.497Z,1085.63
2018-05-25T06:33:34.520Z,793.13
2018-05-25T06:34:34.543Z,1293.75
2018-05-25T06:35:34.568Z,1406.25
2018-05-25T06:36:34.594Z,1693.13
2018-05-25T06:37:34.621Z,1991.25
2018-05-25T06:38:34.647Z,2115.00
2018-05-25T06:39:34.676Z,2131.88
2018-05-25T06:40:34.698Z,2115.00
2018-05-25T06:41:34.736Z,2092.50
2018-05-25T06:42:34.953Z,2143.13
2018-05-25T06:43:34.777Z,2103.75
2018-05-25T06:44:34.805Z,2120.63
2018-05-25T06:45:34.841Z,2193.75
2018-05-25T06:46:34.865Z,2171.25
2018-05-25T06:47:34.894Z,2126.25
2018-05-25T06:48:34.919Z,2193.75
2018-05-25T06:50:34.969Z,2165.63
2018-05-25T06:51:35.009Z,2188.13
2018-05-25T06:52:35.035Z,2182.50
2018-05-25T06:53:35.065Z,2137.50
2018-05-25T06:54:35.088Z,2188.13
2018-05-25T06:55:35.138Z,2255.63
2018-05-25T06:56:35.151Z,2266.88
2018-05-25T06:57:35.527Z,2306.25
2018-05-25T06:58:35.215Z,2373.75
2018-05-25T06:59:35.242Z,2407.50
2018-05-25T07:01:35.306Z,2385.00
2018-05-25T07:02:35.331Z,2407.50
2018-05-25T07:03:35.371Z,2328.75
2018-05-25T07:04:35.397Z,2351.25
2018-05-25T07:05:35.433Z,2441.25
2018-05-25T07:07:35.498Z,2452.50
2018-05-25T07:08:35.728Z,2435.63
2018-05-25T07:09:35.563Z,2469.38
2018-05-25T07:10:35.590Z,2458.13
2018-05-25T07:11:35.629Z,2491.88
2018-05-25T07:12:35.653Z,2525.63
2018-05-25T07:13:35.692Z,2514.38
2018-05-25T07:14:35.731Z,2548.13
2018-05-25T07:15:35.757Z,2598.75
2018-05-25T07:16:35.808Z,2520.00
2018-05-25T07:17:35.821Z,2548.13
2018-05-25T07:18:35.859Z,2581.88
2018-05-25T07:19:35.897Z,2598.75
2018-05-25T07:21:35.963Z,2677.50
2018-05-25T07:22:36.022Z,2632.50
2018-05-25T07:23:36.039Z,2733.75
2018-05-25T07:24:36.065Z,2711.25
2018-05-25T07:26:36.129Z,2745.00
2018-05-25T07:27:36.169Z,2705.63
2018-05-25T07:28:36.195Z,2688.75
2018-05-25T07:30:36.272Z,2756.25
2018-05-25T07:31:36.309Z,2806.88
2018-05-25T07:32:36.336Z,2812.50
2018-05-25T07:33:36.374Z,2863.13
2018-05-25T07:34:36.412Z,2964.38
2018-05-25T07:35:36.438Z,2919.38
2018-05-25T07:36:36.477Z,3003.75
2018-05-25T07:37:36.516Z,3037.50
2018-05-25T07:38:36.554Z,2981.25
2018-05-25T07:39:36.591Z,2970.00
2018-05-25T07:40:36.630Z,3031.88
2018-05-25T07:41:36.658Z,3065.63
2018-05-25T07:42:36.694Z,3071.25
2018-05-25T07:43:36.733Z,3172.50
2018-05-25T07:44:36.759Z,3223.13
2018-05-25T07:45:36.796Z,3121.88
2018-05-25T07:46:36.835Z,3133.13
2018-05-25T07:47:36.874Z,3262.50
2018-05-25T07:48:36.913Z,3240.00
2018-05-25T07:49:36.950Z,3133.13
2018-05-25T07:50:36.979Z,3189.38
2018-05-25T07:51:37.016Z,2925.00
2018-05-25T07:52:37.059Z,2885.63
2018-05-25T07:53:37.116Z,3161.25
2018-05-25T07:54:37.138Z,2992.50
2018-05-25T07:55:37.169Z,2919.38
2018-05-25T07:56:37.211Z,3161.25
2018-05-25T07:57:37.234Z,3335.63
2018-05-25T07:58:37.273Z,3172.50
2018-05-25T07:59:37.310Z,3133.13
2018-05-25T08:00:37.350Z,3093.75
2018-05-25T08:01:37.388Z,3195.00
2018-05-25T08:02:37.427Z,3133.13
2018-05-25T08:03:37.464Z,3110.63
2018-05-25T08:04:37.503Z,3313.13
2018-05-25T08:05:37.542Z,3206.25
2018-05-25T08:06:37.580Z,3313.13
2018-05-25T08:07:37.606Z,3211.88
2018-05-25T08:08:37.645Z,3273.75
2018-05-25T08:09:37.683Z,3256.88
2018-05-25T08:10:37.721Z,3105.00
2018-05-25T08:11:37.760Z,3240.00
2018-05-25T08:12:37.799Z,3279.38
2018-05-25T08:13:37.837Z,3369.38
2018-05-25T08:14:37.874Z,3251.25
2018-05-25T08:15:38.116Z,3273.75
2018-05-25T08:16:37.952Z,3161.25
2018-05-25T08:17:38.193Z,3150.00
2018-05-25T08:18:38.031Z,3290.63
2018-05-25T08:19:38.067Z,3296.25
2018-05-25T08:20:38.119Z,3206.25
2018-05-25T08:21:38.202Z,3211.88
2018-05-25T08:22:38.196Z,3386.25
2018-05-25T08:23:38.220Z,3481.88
2018-05-25T08:24:38.259Z,3397.50
2018-05-25T08:25:38.298Z,3189.38
2018-05-25T08:26:38.335Z,3256.88
2018-05-25T08:27:38.375Z,3408.75
2018-05-25T08:28:38.413Z,3324.38
2018-05-25T08:29:38.451Z,3313.13
2018-05-25T08:30:38.490Z,3363.75
2018-05-25T08:31:38.528Z,3414.38
2018-05-25T08:32:38.566Z,3442.50
2018-05-25T08:33:38.605Z,3358.13
2018-05-25T08:34:38.644Z,3223.13
2018-05-25T08:35:38.694Z,3363.75
2018-05-25T08:36:38.732Z,3397.50
2018-05-25T08:37:38.784Z,3380.63
2018-05-25T08:38:38.810Z,3594.38
2018-05-25T08:39:38.848Z,3695.63
2018-05-25T08:40:38.887Z,3673.13
2018-05-25T08:41:38.926Z,3515.63
2018-05-25T08:42:38.964Z,3571.88
2018-05-25T08:43:39.001Z,3600.00
2018-05-25T08:44:39.040Z,3549.38
2018-05-25T08:45:39.078Z,3521.25
2018-05-25T08:46:39.118Z,3487.50
2018-05-25T08:47:39.155Z,3498.75
2018-05-25T08:48:39.194Z,3403.13
2018-05-25T08:49:39.233Z,3341.25
2018-05-25T08:50:39.272Z,3346.88
2018-05-25T08:51:39.310Z,3498.75
2018-05-25T08:52:39.348Z,3262.50
2018-05-25T08:53:39.386Z,3133.13
2018-05-25T08:54:39.428Z,3217.50
2018-05-25T08:55:39.462Z,3223.13
2018-05-25T08:56:39.501Z,3206.25
2018-05-25T08:57:39.539Z,3301.88
2018-05-25T08:58:39.566Z,3251.25
2018-05-25T08:59:39.605Z,3183.75
2018-05-25T09:00:39.642Z,3223.13
2018-05-25T09:01:39.681Z,3144.38
2018-05-25T09:02:39.719Z,3127.50
2018-05-25T09:03:39.757Z,3037.50
2018-05-25T09:04:39.784Z,3071.25
2018-05-25T09:05:39.821Z,3352.50
2018-05-25T09:06:39.863Z,3504.38
2018-05-25T09:07:39.900Z,3279.38
2018-05-25T09:08:39.926Z,3088.13
2018-05-25T09:09:39.963Z,3172.50
2018-05-25T09:10:40.002Z,3279.38
2018-05-25T09:11:40.041Z,3363.75
2018-05-25T09:12:40.082Z,3178.13
2018-05-25T09:13:40.118Z,3223.13
2018-05-25T09:14:40.144Z,3498.75
2018-05-25T09:15:40.186Z,3549.38
2018-05-25T09:16:40.219Z,3335.63
2018-05-25T09:17:40.246Z,3206.25
2018-05-25T09:18:40.284Z,3262.50
2018-05-25T09:19:40.322Z,3532.50
2018-05-25T09:20:40.361Z,3768.75
2018-05-25T09:21:40.407Z,3459.38
2018-05-25T09:22:40.629Z,3313.13
2018-05-25T09:23:40.463Z,3425.63
2018-05-25T09:24:40.503Z,3813.75
2018-05-25T09:25:40.541Z,4033.13
2018-05-25T09:26:40.567Z,3982.50
2018-05-25T09:27:40.606Z,3892.50
2018-05-25T09:28:40.644Z,3954.38
2018-05-25T09:29:40.682Z,4078.13
2018-05-25T09:30:40.723Z,528.75
2018-05-25T09:31:40.747Z,523.13
2018-05-25T09:32:40.786Z,4140.00
2018-05-25T09:33:40.825Z,4213.13
2018-05-25T09:34:41.063Z,4500.00
2018-05-25T09:35:40.900Z,4432.50
2018-05-25T09:36:40.927Z,4241.25
2018-05-25T09:37:41.012Z,4263.75
2018-05-25T09:38:41.003Z,4235.63
2018-05-25T09:39:41.042Z,4460.63
2018-05-25T09:40:41.072Z,4635.00
2018-05-25T09:41:41.106Z,4556.25
2018-05-25T09:42:41.145Z,4590.00
2018-05-25T09:43:41.183Z,4753.13
2018-05-25T09:44:41.222Z,4646.25
2018-05-25T09:45:41.259Z,4601.25
2018-05-25T09:46:41.304Z,3183.75
2018-05-25T09:47:41.326Z,1063.13
2018-05-25T09:48:41.364Z,4477.50
2018-05-25T09:49:41.603Z,4584.38
2018-05-25T09:50:41.441Z,4831.88
2018-05-25T09:51:41.478Z,4556.25
2018-05-25T09:53:41.556Z,4629.38
2018-05-25T09:55:41.632Z,1361.25
2018-05-25T09:56:41.687Z,4325.63
2018-05-25T09:57:41.710Z,4691.25
2018-05-25T09:58:41.747Z,4764.38
2018-05-25T09:59:41.786Z,4781.25
2018-05-25T10:00:41.826Z,658.13
2018-05-25T10:01:41.864Z,680.63
2018-05-25T10:02:41.901Z,3684.38
2018-05-25T10:03:41.940Z,675.00
2018-05-25T10:05:42.017Z,573.75
2018-05-25T10:06:42.055Z,641.25
2018-05-25T10:07:42.094Z,1355.63
2018-05-25T10:08:42.132Z,4668.75
2018-05-25T10:09:42.175Z,4888.13
2018-05-25T10:10:42.255Z,5000.63
2018-05-25T10:11:42.248Z,922.50
2018-05-25T10:12:42.285Z,748.13
2018-05-25T10:13:42.323Z,1524.38
2018-05-25T10:14:42.351Z,821.25
2018-05-25T10:15:42.388Z,4837.50
2018-05-25T10:16:42.428Z,4938.75
2018-05-25T10:17:42.465Z,5040.00
2018-05-25T10:18:42.503Z,4837.50
2018-05-25T10:19:42.543Z,4786.88
2018-05-25T10:20:42.569Z,4843.13
2018-05-25T10:21:42.610Z,1406.25
2018-05-25T10:22:42.646Z,4876.88
2018-05-25T10:23:42.687Z,984.38
2018-05-25T10:24:42.725Z,1231.88
2018-05-25T10:25:42.760Z,1490.63
2018-05-25T10:26:42.798Z,916.88
2018-05-25T10:27:42.837Z,1080.00
2018-05-25T10:29:42.915Z,4955.63
2018-05-25T10:30:42.952Z,4635.00
2018-05-25T10:31:42.991Z,1822.50
2018-05-25T10:32:43.029Z,1816.88
2018-05-25T10:33:43.068Z,990.00
2018-05-25T10:34:43.106Z,990.00
2018-05-25T10:35:43.182Z,1035.00
2018-05-25T10:36:43.171Z,2683.13
2018-05-25T10:37:43.209Z,5113.13
2018-05-25T10:38:43.248Z,4809.38
2018-05-25T10:39:43.285Z,4781.25
2018-05-25T10:40:43.325Z,4921.88
2018-05-25T10:41:43.362Z,810.00
2018-05-25T10:42:43.402Z,2891.25
2018-05-25T10:43:43.440Z,5101.88
2018-05-25T10:44:43.478Z,1023.75
2018-05-25T10:45:43.536Z,2385.00
2018-05-25T10:46:43.555Z,1023.75
2018-05-25T10:47:43.594Z,894.38
2018-05-25T10:48:43.862Z,4663.13
2018-05-25T10:49:43.659Z,4843.13
2018-05-25T10:50:43.696Z,4843.13
2018-05-25T10:51:43.735Z,4775.63
2018-05-25T10:53:43.812Z,753.75
2018-05-25T10:54:43.851Z,2925.00
2018-05-25T10:55:43.888Z,877.50
2018-05-25T10:56:44.289Z,4320.00
2018-05-25T10:57:43.965Z,4781.25
2018-05-25T10:59:44.043Z,4629.38
2018-05-25T11:00:44.082Z,4747.50
2018-05-25T11:01:44.120Z,4477.50
2018-05-25T11:02:44.169Z,4325.63
2018-05-25T11:03:44.204Z,4381.88
2018-05-25T11:04:44.234Z,793.13
2018-05-25T11:05:44.273Z,708.75
2018-05-25T11:06:44.312Z,703.13
2018-05-25T11:07:44.350Z,2165.63
2018-05-25T11:08:44.387Z,4449.38
2018-05-25T11:09:44.426Z,4095.00
2018-05-25T11:10:44.465Z,3892.50
2018-05-25T11:11:44.551Z,3358.13
2018-05-25T11:12:44.541Z,3982.50
2018-05-25T11:13:44.581Z,3746.25
2018-05-25T11:14:44.619Z,3391.88
2018-05-25T11:15:44.860Z,3408.75
2018-05-25T11:17:45.059Z,3521.25
2018-05-25T11:18:44.785Z,697.50
2018-05-25T11:19:44.825Z,686.25
2018-05-25T11:20:44.863Z,3245.63
2018-05-25T11:21:44.899Z,3307.50
2018-05-25T11:22:44.939Z,3358.13
2018-05-25T11:23:44.979Z,877.50
2018-05-25T11:24:45.029Z,787.50
2018-05-25T11:25:45.067Z,826.88
2018-05-25T11:26:45.105Z,871.88
2018-05-25T11:27:45.191Z,2531.25
2018-05-25T11:29:45.221Z,2733.75
2018-05-25T11:30:45.472Z,2711.25
2018-05-25T11:31:45.309Z,2486.25
2018-05-25T11:32:45.349Z,2553.75
2018-05-25T11:33:45.399Z,2593.13
2018-05-25T11:34:45.426Z,2491.88
2018-05-25T11:35:45.463Z,2379.38
2018-05-25T11:36:45.502Z,2340.00
2018-05-25T11:38:45.605Z,2351.25
2018-05-25T11:39:45.981Z,2463.75
2018-05-25T11:40:45.668Z,2587.50
2018-05-25T11:41:45.710Z,3172.50
2018-05-25T11:42:45.758Z,4657.50
2018-05-25T11:43:45.797Z,5850.00
2018-05-25T11:44:45.835Z,5973.75
2018-05-25T11:45:45.886Z,5574.38
2018-05-25T11:46:45.936Z,4983.75
2018-05-25T11:47:45.966Z,3796.88
2018-05-25T11:48:46.017Z,3543.75
2018-05-25T11:49:46.052Z,2081.25
2018-05-25T11:50:46.090Z,1726.88
2018-05-25T11:51:46.143Z,1113.75
2018-05-25T11:52:46.193Z,2109.38
2018-05-25T11:53:46.231Z,1355.63
2018-05-25T11:54:46.270Z,1321.88
2018-05-25T11:55:46.307Z,1355.63
2018-05-25T11:56:46.360Z,1040.63
2018-05-25T11:57:46.397Z,950.63
2018-05-25T11:58:46.435Z,990.00
2018-05-25T11:59:46.476Z,1096.88
2018-05-25T12:00:46.525Z,1209.38
2018-05-25T12:01:46.568Z,4826.25
2018-05-25T12:03:46.640Z,4308.75
2018-05-25T12:04:46.679Z,3279.38
2018-05-25T12:05:46.718Z,3853.13
2018-05-25T12:06:46.756Z,1248.75
2018-05-25T12:07:46.794Z,1186.88
2018-05-25T12:08:46.832Z,3498.75
2018-05-25T12:09:46.884Z,4325.63
2018-05-25T12:10:46.909Z,4179.38
2018-05-25T12:11:46.947Z,3988.13
2018-05-25T12:12:46.987Z,3976.88
2018-05-25T12:13:47.025Z,3701.25
2018-05-25T12:14:47.063Z,3566.25
2018-05-25T12:16:47.149Z,3313.13
2018-05-25T12:17:47.179Z,3391.88
2018-05-25T12:18:47.230Z,3346.88
2018-05-25T12:19:47.268Z,3414.38
2018-05-25T12:20:47.305Z,3408.75
2018-05-25T12:21:47.345Z,3825.00
2018-05-25T12:22:47.385Z,3858.75
2018-05-25T12:23:47.421Z,4736.25
2018-05-25T12:24:47.474Z,5023.13
2018-05-25T12:25:47.499Z,1080.00
2018-05-25T12:26:47.538Z,4826.25
2018-05-25T12:27:47.589Z,5203.13
2018-05-25T12:28:47.626Z,5214.38
2018-05-25T12:30:47.703Z,1665.00
2018-05-25T12:31:47.741Z,4831.88
2018-05-25T12:32:47.779Z,1631.25
2018-05-25T12:33:47.818Z,4196.25
2018-05-25T12:34:47.869Z,4336.88
2018-05-25T12:35:47.909Z,3988.13
2018-05-25T12:36:47.959Z,3015.00
2018-05-25T12:37:47.990Z,3622.50
2018-05-25T12:38:48.022Z,3178.13
2018-05-25T12:39:48.062Z,2925.00
2018-05-25T12:40:48.100Z,3127.50
2018-05-25T12:41:48.150Z,703.13
2018-05-25T12:42:48.190Z,630.00
2018-05-25T12:43:48.233Z,714.38
2018-05-25T12:44:48.267Z,1181.25
2018-05-25T12:45:48.305Z,2390.63
2018-05-25T12:46:48.345Z,3768.75
2018-05-25T12:47:48.382Z,1670.63
2018-05-25T12:48:48.422Z,1136.25